sensor_id;sensor_type;location;lat;lon;timestamp;P1;durP1;ratioP1;P2;durP2;ratioP2
15748;SDS011;7976;52.526;13.326;2022-12-18T00:01:37;32.57;;;10.07;;
15748;SDS011;7976;52.526;13.326;2022-12-18T00:04:07;34.27;;;10.37;;
15748;SDS011;7976;52.526;13.326;2022-12-18T00:06:45;34.07;;;11.43;;
15748;SDS011;7976;52.526;13.326;2022-12-18T00:09:12;39.53;;;13.93;;
15748;SDS011;7976;52.526;13.326;2022-12-18T00:11:41;44.50;;;14.60;;
15748;SDS011;7976;52.526;13.326;2022-12-18T00:14:08;40.90;;;14.20;;
15748;SDS011;7976;52.526;13.326;2022-12-18T00:16:37;32.17;;;9.20;;
15748;SDS011;7976;52.526;13.326;2022-12-18T00:19:05;33.27;;;10.50;;
15748;SDS011;7976;52.526;13.326;2022-12-18T00:21:33;31.87;;;9.97;;
15748;SDS011;7976;52.526;13.326;2022-12-18T00:24:00;32.53;;;13.03;;
15748;SDS011;7976;52.526;13.326;2022-12-18T00:26:28;28.33;;;9.33;;
15748;SDS011;7976;52.526;13.326;2022-12-18T00:29:02;29.00;;;10.87;;
15748;SDS011;7976;52.526;13.326;2022-12-18T00:31:32;35.67;;;12.97;;
15748;SDS011;7976;52.526;13.326;2022-12-18T00:34:01;37.33;;;13.60;;
15748;SDS011;7976;52.526;13.326;2022-12-18T00:36:29;40.00;;;14.10;;
15748;SDS011;7976;52.526;13.326;2022-12-18T00:38:58;36.60;;;13.57;;
15748;SDS011;7976;52.526;13.326;2022-12-18T00:41:27;35.40;;;13.17;;
15748;SDS011;7976;52.526;13.326;2022-12-18T00:44:13;38.83;;;14.07;;
15748;SDS011;7976;52.526;13.326;2022-12-18T00:46:43;35.83;;;13.00;;
15748;SDS011;7976;52.526;13.326;2022-12-18T00:49:14;35.50;;;12.10;;
15748;SDS011;7976;52.526;13.326;2022-12-18T00:51:43;35.83;;;13.30;;
15748;SDS011;7976;52.526;13.326;2022-12-18T00:54:10;32.60;;;9.67;;
15748;SDS011;7976;52.526;13.326;2022-12-18T00:56:37;34.17;;;11.63;;
15748;SDS011;7976;52.526;13.326;2022-12-18T00:59:05;39.60;;;14.17;;
15748;SDS011;7976;52.526;13.326;2022-12-18T01:01:33;37.23;;;13.43;;
15748;SDS011;7976;52.526;13.326;2022-12-18T01:04:03;38.90;;;12.57;;
15748;SDS011;7976;52.526;13.326;2022-12-18T01:06:31;41.20;;;13.20;;
15748;SDS011;7976;52.526;13.326;2022-12-18T01:08:58;42.27;;;15.20;;
15748;SDS011;7976;52.526;13.326;2022-12-18T01:11:25;41.87;;;13.80;;
15748;SDS011;7976;52.526;13.326;2022-12-18T01:13:52;39.83;;;14.60;;
15748;SDS011;7976;52.526;13.326;2022-12-18T01:16:21;41.47;;;14.67;;
15748;SDS011;7976;52.526;13.326;2022-12-18T01:18:52;38.50;;;13.30;;
15748;SDS011;7976;52.526;13.326;2022-12-18T01:21:20;34.63;;;13.97;;
15748;SDS011;7976;52.526;13.326;2022-12-18T01:23:50;35.90;;;13.53;;
15748;SDS011;7976;52.526;13.326;2022-12-18T01:26:19;38.10;;;13.73;;
15748;SDS011;7976;52.526;13.326;2022-12-18T01:28:46;44.07;;;14.03;;
15748;SDS011;7976;52.526;13.326;2022-12-18T01:31:14;37.83;;;14.17;;
15748;SDS011;7976;52.526;13.326;2022-12-18T01:33:48;38.47;;;14.77;;
15748;SDS011;7976;52.526;13.326;2022-12-18T01:36:19;41.20;;;13.93;;
15748;SDS011;7976;52.526;13.326;2022-12-18T01:38:48;41.90;;;15.27;;
15748;SDS011;7976;52.526;13.326;2022-12-18T01:41:18;39.73;;;12.43;;
15748;SDS011;7976;52.526;13.326;2022-12-18T01:43:49;39.30;;;14.13;;
15748;SDS011;7976;52.526;13.326;2022-12-18T01:46:20;39.70;;;13.17;;
15748;SDS011;7976;52.526;13.326;2022-12-18T01:48:55;37.83;;;14.03;;
15748;SDS011;7976;52.526;13.326;2022-12-18T01:51:28;39.57;;;13.50;;
15748;SDS011;7976;52.526;13.326;2022-12-18T01:53:56;48.73;;;14.43;;
15748;SDS011;7976;52.526;13.326;2022-12-18T01:56:25;42.77;;;14.63;;
15748;SDS011;7976;52.526;13.326;2022-12-18T01:58:54;41.17;;;13.40;;
15748;SDS011;7976;52.526;13.326;2022-12-18T02:01:28;40.47;;;14.30;;
15748;SDS011;7976;52.526;13.326;2022-12-18T02:04:14;45.03;;;15.77;;
15748;SDS011;7976;52.526;13.326;2022-12-18T02:06:49;45.27;;;15.43;;
15748;SDS011;7976;52.526;13.326;2022-12-18T02:09:26;41.90;;;14.97;;
15748;SDS011;7976;52.526;13.326;2022-12-18T02:12:02;43.50;;;15.53;;
15748;SDS011;7976;52.526;13.326;2022-12-18T02:14:40;43.30;;;15.20;;
15748;SDS011;7976;52.526;13.326;2022-12-18T02:17:15;47.10;;;15.13;;
15748;SDS011;7976;52.526;13.326;2022-12-18T02:19:51;42.80;;;13.83;;
15748;SDS011;7976;52.526;13.326;2022-12-18T02:22:39;39.37;;;14.40;;
15748;SDS011;7976;52.526;13.326;2022-12-18T02:25:25;46.57;;;17.33;;
15748;SDS011;7976;52.526;13.326;2022-12-18T02:28:11;47.73;;;16.80;;
15748;SDS011;7976;52.526;13.326;2022-12-18T02:30:43;45.00;;;15.00;;
15748;SDS011;7976;52.526;13.326;2022-12-18T02:33:15;41.37;;;15.77;;
15748;SDS011;7976;52.526;13.326;2022-12-18T02:35:45;43.30;;;15.60;;
15748;SDS011;7976;52.526;13.326;2022-12-18T02:38:13;46.27;;;17.07;;
15748;SDS011;7976;52.526;13.326;2022-12-18T02:40:45;44.03;;;16.70;;
15748;SDS011;7976;52.526;13.326;2022-12-18T02:43:17;41.30;;;15.53;;
15748;SDS011;7976;52.526;13.326;2022-12-18T02:45:48;39.47;;;15.20;;
15748;SDS011;7976;52.526;13.326;2022-12-18T02:48:21;39.33;;;14.83;;
15748;SDS011;7976;52.526;13.326;2022-12-18T02:50:53;41.87;;;14.47;;
15748;SDS011;7976;52.526;13.326;2022-12-18T02:53:36;45.83;;;15.83;;
15748;SDS011;7976;52.526;13.326;2022-12-18T02:56:11;42.03;;;14.37;;
15748;SDS011;7976;52.526;13.326;2022-12-18T02:58:50;47.37;;;15.30;;
15748;SDS011;7976;52.526;13.326;2022-12-18T03:01:34;42.67;;;15.60;;
15748;SDS011;7976;52.526;13.326;2022-12-18T03:04:09;36.50;;;13.57;;
15748;SDS011;7976;52.526;13.326;2022-12-18T03:06:43;38.50;;;13.77;;
15748;SDS011;7976;52.526;13.326;2022-12-18T03:09:17;42.30;;;13.93;;
15748;SDS011;7976;52.526;13.326;2022-12-18T03:11:52;44.97;;;14.47;;
15748;SDS011;7976;52.526;13.326;2022-12-18T03:14:43;41.97;;;14.03;;
15748;SDS011;7976;52.526;13.326;2022-12-18T03:17:16;41.20;;;14.37;;
15748;SDS011;7976;52.526;13.326;2022-12-18T03:19:50;40.87;;;15.13;;
15748;SDS011;7976;52.526;13.326;2022-12-18T03:22:22;42.30;;;15.30;;
15748;SDS011;7976;52.526;13.326;2022-12-18T03:24:53;46.90;;;15.00;;
15748;SDS011;7976;52.526;13.326;2022-12-18T03:27:23;38.40;;;13.93;;
15748;SDS011;7976;52.526;13.326;2022-12-18T03:29:56;42.13;;;15.17;;
15748;SDS011;7976;52.526;13.326;2022-12-18T03:32:36;41.67;;;14.60;;
15748;SDS011;7976;52.526;13.326;2022-12-18T03:35:09;44.80;;;16.30;;
15748;SDS011;7976;52.526;13.326;2022-12-18T03:37:41;40.07;;;14.23;;
15748;SDS011;7976;52.526;13.326;2022-12-18T03:40:08;39.97;;;14.27;;
15748;SDS011;7976;52.526;13.326;2022-12-18T03:42:37;40.93;;;14.20;;
15748;SDS011;7976;52.526;13.326;2022-12-18T03:45:20;37.70;;;13.97;;
15748;SDS011;7976;52.526;13.326;2022-12-18T03:47:55;39.17;;;13.70;;
15748;SDS011;7976;52.526;13.326;2022-12-18T03:50:36;41.03;;;13.87;;
15748;SDS011;7976;52.526;13.326;2022-12-18T03:53:14;44.53;;;14.90;;
15748;SDS011;7976;52.526;13.326;2022-12-18T03:55:54;42.27;;;14.73;;
15748;SDS011;7976;52.526;13.326;2022-12-18T03:58:29;44.13;;;14.33;;
15748;SDS011;7976;52.526;13.326;2022-12-18T04:01:14;44.07;;;15.23;;
15748;SDS011;7976;52.526;13.326;2022-12-18T04:03:45;43.57;;;15.20;;
15748;SDS011;7976;52.526;13.326;2022-12-18T04:06:17;43.07;;;15.90;;
15748;SDS011;7976;52.526;13.326;2022-12-18T04:08:45;48.10;;;16.43;;
15748;SDS011;7976;52.526;13.326;2022-12-18T04:11:16;45.13;;;16.57;;
15748;SDS011;7976;52.526;13.326;2022-12-18T04:13:45;48.93;;;16.93;;
15748;SDS011;7976;52.526;13.326;2022-12-18T04:16:19;52.50;;;18.00;;
15748;SDS011;7976;52.526;13.326;2022-12-18T04:18:50;50.43;;;17.27;;
15748;SDS011;7976;52.526;13.326;2022-12-18T04:21:19;55.97;;;17.57;;
15748;SDS011;7976;52.526;13.326;2022-12-18T04:23:48;49.17;;;18.47;;
15748;SDS011;7976;52.526;13.326;2022-12-18T04:26:18;52.97;;;18.10;;
15748;SDS011;7976;52.526;13.326;2022-12-18T04:28:55;64.90;;;21.63;;
15748;SDS011;7976;52.526;13.326;2022-12-18T04:31:23;60.13;;;20.43;;
15748;SDS011;7976;52.526;13.326;2022-12-18T04:33:50;57.43;;;19.00;;
15748;SDS011;7976;52.526;13.326;2022-12-18T04:36:16;51.60;;;18.37;;
15748;SDS011;7976;52.526;13.326;2022-12-18T04:38:44;51.30;;;16.90;;
15748;SDS011;7976;52.526;13.326;2022-12-18T04:41:14;61.03;;;19.47;;
15748;SDS011;7976;52.526;13.326;2022-12-18T04:43:43;53.93;;;19.93;;
15748;SDS011;7976;52.526;13.326;2022-12-18T04:46:10;60.30;;;19.23;;
15748;SDS011;7976;52.526;13.326;2022-12-18T04:48:38;61.63;;;20.83;;
15748;SDS011;7976;52.526;13.326;2022-12-18T04:51:05;66.57;;;21.47;;
15748;SDS011;7976;52.526;13.326;2022-12-18T04:53:32;66.70;;;21.83;;
15748;SDS011;7976;52.526;13.326;2022-12-18T04:56:06;63.97;;;20.90;;
15748;SDS011;7976;52.526;13.326;2022-12-18T04:58:35;65.40;;;20.80;;
15748;SDS011;7976;52.526;13.326;2022-12-18T05:01:03;68.17;;;20.77;;
15748;SDS011;7976;52.526;13.326;2022-12-18T05:03:32;63.97;;;21.57;;
15748;SDS011;7976;52.526;13.326;2022-12-18T05:06:02;70.47;;;21.63;;
15748;SDS011;7976;52.526;13.326;2022-12-18T05:08:29;67.67;;;22.53;;
15748;SDS011;7976;52.526;13.326;2022-12-18T05:11:00;65.03;;;21.33;;
15748;SDS011;7976;52.526;13.326;2022-12-18T05:13:29;68.80;;;22.30;;
15748;SDS011;7976;52.526;13.326;2022-12-18T05:15:57;70.87;;;22.70;;
15748;SDS011;7976;52.526;13.326;2022-12-18T05:18:24;67.87;;;21.10;;
15748;SDS011;7976;52.526;13.326;2022-12-18T05:20:52;68.07;;;22.07;;
15748;SDS011;7976;52.526;13.326;2022-12-18T05:23:21;72.27;;;22.43;;
15748;SDS011;7976;52.526;13.326;2022-12-18T05:25:50;71.87;;;22.00;;
15748;SDS011;7976;52.526;13.326;2022-12-18T05:28:18;75.10;;;23.43;;
15748;SDS011;7976;52.526;13.326;2022-12-18T05:30:47;71.83;;;23.77;;
15748;SDS011;7976;52.526;13.326;2022-12-18T05:33:15;71.17;;;22.20;;
15748;SDS011;7976;52.526;13.326;2022-12-18T05:35:42;64.20;;;20.83;;
15748;SDS011;7976;52.526;13.326;2022-12-18T05:38:09;71.33;;;21.73;;
15748;SDS011;7976;52.526;13.326;2022-12-18T05:40:40;65.40;;;20.30;;
15748;SDS011;7976;52.526;13.326;2022-12-18T05:43:08;62.83;;;20.33;;
15748;SDS011;7976;52.526;13.326;2022-12-18T05:45:36;65.70;;;21.30;;
15748;SDS011;7976;52.526;13.326;2022-12-18T05:48:04;66.07;;;20.43;;
15748;SDS011;7976;52.526;13.326;2022-12-18T05:50:33;63.10;;;21.73;;
15748;SDS011;7976;52.526;13.326;2022-12-18T05:53:00;68.27;;;21.17;;
15748;SDS011;7976;52.526;13.326;2022-12-18T05:55:27;70.13;;;21.60;;
15748;SDS011;7976;52.526;13.326;2022-12-18T05:57:56;65.80;;;21.23;;
15748;SDS011;7976;52.526;13.326;2022-12-18T06:00:22;76.13;;;22.47;;
15748;SDS011;7976;52.526;13.326;2022-12-18T06:02:49;71.50;;;21.30;;
15748;SDS011;7976;52.526;13.326;2022-12-18T06:05:16;66.73;;;21.40;;
15748;SDS011;7976;52.526;13.326;2022-12-18T06:07:43;66.70;;;21.00;;
15748;SDS011;7976;52.526;13.326;2022-12-18T06:10:10;71.80;;;22.03;;
15748;SDS011;7976;52.526;13.326;2022-12-18T06:12:36;64.43;;;21.00;;
15748;SDS011;7976;52.526;13.326;2022-12-18T06:15:05;74.30;;;21.93;;
15748;SDS011;7976;52.526;13.326;2022-12-18T06:17:34;57.97;;;20.83;;
15748;SDS011;7976;52.526;13.326;2022-12-18T06:20:01;72.37;;;22.43;;
15748;SDS011;7976;52.526;13.326;2022-12-18T06:22:30;65.10;;;20.80;;
15748;SDS011;7976;52.526;13.326;2022-12-18T06:24:58;72.73;;;22.73;;
15748;SDS011;7976;52.526;13.326;2022-12-18T06:27:25;80.23;;;23.13;;
15748;SDS011;7976;52.526;13.326;2022-12-18T06:29:52;69.40;;;23.10;;
15748;SDS011;7976;52.526;13.326;2022-12-18T06:32:20;72.13;;;23.00;;
15748;SDS011;7976;52.526;13.326;2022-12-18T06:34:47;72.23;;;22.07;;
15748;SDS011;7976;52.526;13.326;2022-12-18T06:37:13;70.77;;;23.43;;
15748;SDS011;7976;52.526;13.326;2022-12-18T06:39:40;71.97;;;22.73;;
15748;SDS011;7976;52.526;13.326;2022-12-18T06:42:07;70.40;;;23.47;;
15748;SDS011;7976;52.526;13.326;2022-12-18T06:44:34;63.30;;;22.10;;
15748;SDS011;7976;52.526;13.326;2022-12-18T06:47:00;78.47;;;22.77;;
15748;SDS011;7976;52.526;13.326;2022-12-18T06:49:29;66.57;;;21.73;;
15748;SDS011;7976;52.526;13.326;2022-12-18T06:51:55;73.80;;;23.60;;
15748;SDS011;7976;52.526;13.326;2022-12-18T06:54:22;68.67;;;23.40;;
15748;SDS011;7976;52.526;13.326;2022-12-18T06:56:49;69.07;;;22.13;;
15748;SDS011;7976;52.526;13.326;2022-12-18T06:59:16;67.67;;;22.63;;
15748;SDS011;7976;52.526;13.326;2022-12-18T07:01:43;60.97;;;20.97;;
15748;SDS011;7976;52.526;13.326;2022-12-18T07:04:09;63.40;;;21.30;;
15748;SDS011;7976;52.526;13.326;2022-12-18T07:06:38;63.93;;;21.43;;
15748;SDS011;7976;52.526;13.326;2022-12-18T07:09:04;65.63;;;20.93;;
15748;SDS011;7976;52.526;13.326;2022-12-18T07:11:32;64.03;;;21.50;;
15748;SDS011;7976;52.526;13.326;2022-12-18T07:13:59;61.53;;;23.07;;
15748;SDS011;7976;52.526;13.326;2022-12-18T07:16:26;67.43;;;22.20;;
15748;SDS011;7976;52.526;13.326;2022-12-18T07:18:54;65.17;;;21.47;;
15748;SDS011;7976;52.526;13.326;2022-12-18T07:21:22;66.67;;;22.77;;
15748;SDS011;7976;52.526;13.326;2022-12-18T07:23:51;67.73;;;22.40;;
15748;SDS011;7976;52.526;13.326;2022-12-18T07:26:19;61.23;;;21.23;;
15748;SDS011;7976;52.526;13.326;2022-12-18T07:28:47;61.40;;;21.43;;
15748;SDS011;7976;52.526;13.326;2022-12-18T07:31:15;65.60;;;21.43;;
15748;SDS011;7976;52.526;13.326;2022-12-18T07:33:46;62.63;;;19.33;;
15748;SDS011;7976;52.526;13.326;2022-12-18T07:36:13;52.17;;;18.13;;
15748;SDS011;7976;52.526;13.326;2022-12-18T07:38:40;53.83;;;19.40;;
15748;SDS011;7976;52.526;13.326;2022-12-18T07:41:10;52.20;;;19.47;;
15748;SDS011;7976;52.526;13.326;2022-12-18T07:43:39;55.37;;;18.87;;
15748;SDS011;7976;52.526;13.326;2022-12-18T07:46:07;54.83;;;18.30;;
15748;SDS011;7976;52.526;13.326;2022-12-18T07:48:35;57.30;;;18.37;;
15748;SDS011;7976;52.526;13.326;2022-12-18T07:51:02;52.80;;;18.30;;
15748;SDS011;7976;52.526;13.326;2022-12-18T07:53:32;58.30;;;18.13;;
15748;SDS011;7976;52.526;13.326;2022-12-18T07:56:02;47.27;;;16.97;;
15748;SDS011;7976;52.526;13.326;2022-12-18T07:58:33;45.83;;;15.77;;
15748;SDS011;7976;52.526;13.326;2022-12-18T08:01:02;51.67;;;17.80;;
15748;SDS011;7976;52.526;13.326;2022-12-18T08:03:30;52.90;;;17.17;;
15748;SDS011;7976;52.526;13.326;2022-12-18T08:05:58;47.57;;;18.23;;
15748;SDS011;7976;52.526;13.326;2022-12-18T08:08:30;57.43;;;18.57;;
15748;SDS011;7976;52.526;13.326;2022-12-18T08:10:57;52.30;;;17.50;;
15748;SDS011;7976;52.526;13.326;2022-12-18T08:13:24;50.77;;;18.10;;
15748;SDS011;7976;52.526;13.326;2022-12-18T08:15:56;51.13;;;17.27;;
15748;SDS011;7976;52.526;13.326;2022-12-18T08:18:24;54.13;;;17.30;;
15748;SDS011;7976;52.526;13.326;2022-12-18T08:20:51;52.57;;;17.80;;
15748;SDS011;7976;52.526;13.326;2022-12-18T08:23:18;51.47;;;17.40;;
15748;SDS011;7976;52.526;13.326;2022-12-18T08:25:45;49.57;;;17.27;;
15748;SDS011;7976;52.526;13.326;2022-12-18T08:28:12;61.70;;;17.07;;
15748;SDS011;7976;52.526;13.326;2022-12-18T08:30:39;52.47;;;17.57;;
15748;SDS011;7976;52.526;13.326;2022-12-18T08:33:07;49.97;;;18.17;;
15748;SDS011;7976;52.526;13.326;2022-12-18T08:35:34;55.63;;;18.70;;
15748;SDS011;7976;52.526;13.326;2022-12-18T08:38:02;50.27;;;16.67;;
15748;SDS011;7976;52.526;13.326;2022-12-18T08:40:29;49.97;;;17.63;;
15748;SDS011;7976;52.526;13.326;2022-12-18T08:42:56;48.10;;;17.23;;
15748;SDS011;7976;52.526;13.326;2022-12-18T08:45:41;47.57;;;17.13;;
15748;SDS011;7976;52.526;13.326;2022-12-18T08:48:09;43.73;;;16.37;;
15748;SDS011;7976;52.526;13.326;2022-12-18T08:50:36;53.90;;;17.00;;
15748;SDS011;7976;52.526;13.326;2022-12-18T08:53:02;53.40;;;17.23;;
15748;SDS011;7976;52.526;13.326;2022-12-18T08:55:29;49.80;;;16.83;;
15748;SDS011;7976;52.526;13.326;2022-12-18T08:57:56;50.40;;;15.73;;
15748;SDS011;7976;52.526;13.326;2022-12-18T09:00:23;49.73;;;17.57;;
15748;SDS011;7976;52.526;13.326;2022-12-18T09:02:50;49.00;;;17.00;;
15748;SDS011;7976;52.526;13.326;2022-12-18T09:05:18;44.43;;;15.20;;
15748;SDS011;7976;52.526;13.326;2022-12-18T09:07:45;49.50;;;17.70;;
15748;SDS011;7976;52.526;13.326;2022-12-18T09:10:12;49.90;;;16.73;;
15748;SDS011;7976;52.526;13.326;2022-12-18T09:12:38;47.03;;;16.50;;
15748;SDS011;7976;52.526;13.326;2022-12-18T09:15:05;47.97;;;17.27;;
15748;SDS011;7976;52.526;13.326;2022-12-18T09:17:33;48.27;;;17.37;;
15748;SDS011;7976;52.526;13.326;2022-12-18T09:20:00;46.30;;;16.90;;
15748;SDS011;7976;52.526;13.326;2022-12-18T09:22:28;43.43;;;15.97;;
15748;SDS011;7976;52.526;13.326;2022-12-18T09:24:55;51.10;;;16.87;;
15748;SDS011;7976;52.526;13.326;2022-12-18T09:27:21;44.50;;;15.63;;
15748;SDS011;7976;52.526;13.326;2022-12-18T09:29:48;43.13;;;14.93;;
15748;SDS011;7976;52.526;13.326;2022-12-18T09:32:15;44.20;;;15.50;;
15748;SDS011;7976;52.526;13.326;2022-12-18T09:34:42;42.30;;;14.83;;
15748;SDS011;7976;52.526;13.326;2022-12-18T09:37:09;42.60;;;14.50;;
15748;SDS011;7976;52.526;13.326;2022-12-18T09:39:37;43.93;;;15.60;;
15748;SDS011;7976;52.526;13.326;2022-12-18T09:42:04;41.47;;;14.67;;
15748;SDS011;7976;52.526;13.326;2022-12-18T09:44:32;44.97;;;15.60;;
15748;SDS011;7976;52.526;13.326;2022-12-18T09:47:06;40.73;;;13.80;;
15748;SDS011;7976;52.526;13.326;2022-12-18T09:49:41;41.77;;;14.47;;
15748;SDS011;7976;52.526;13.326;2022-12-18T09:52:16;43.67;;;16.03;;
15748;SDS011;7976;52.526;13.326;2022-12-18T09:54:52;39.63;;;15.13;;
15748;SDS011;7976;52.526;13.326;2022-12-18T09:57:26;37.30;;;14.20;;
15748;SDS011;7976;52.526;13.326;2022-12-18T09:59:57;42.27;;;15.70;;
15748;SDS011;7976;52.526;13.326;2022-12-18T10:02:36;41.27;;;14.50;;
15748;SDS011;7976;52.526;13.326;2022-12-18T10:05:05;42.03;;;13.97;;
15748;SDS011;7976;52.526;13.326;2022-12-18T10:07:49;43.33;;;15.27;;
15748;SDS011;7976;52.526;13.326;2022-12-18T10:10:29;41.43;;;14.87;;
15748;SDS011;7976;52.526;13.326;2022-12-18T10:13:07;45.07;;;15.10;;
15748;SDS011;7976;52.526;13.326;2022-12-18T10:15:48;43.13;;;15.10;;
15748;SDS011;7976;52.526;13.326;2022-12-18T10:18:50;40.63;;;14.57;;
15748;SDS011;7976;52.526;13.326;2022-12-18T10:21:37;43.80;;;15.40;;
15748;SDS011;7976;52.526;13.326;2022-12-18T10:24:17;43.30;;;15.30;;
15748;SDS011;7976;52.526;13.326;2022-12-18T10:29:41;45.23;;;15.57;;
15748;SDS011;7976;52.526;13.326;2022-12-18T10:32:13;40.33;;;14.80;;
15748;SDS011;7976;52.526;13.326;2022-12-18T10:34:46;42.50;;;15.17;;
15748;SDS011;7976;52.526;13.326;2022-12-18T10:37:16;48.87;;;15.40;;
15748;SDS011;7976;52.526;13.326;2022-12-18T10:39:48;49.10;;;16.57;;
15748;SDS011;7976;52.526;13.326;2022-12-18T10:42:38;44.67;;;14.30;;
15748;SDS011;7976;52.526;13.326;2022-12-18T10:45:09;44.97;;;15.00;;
15748;SDS011;7976;52.526;13.326;2022-12-18T10:47:41;43.10;;;15.23;;
15748;SDS011;7976;52.526;13.326;2022-12-18T10:50:22;42.90;;;15.87;;
15748;SDS011;7976;52.526;13.326;2022-12-18T10:52:57;37.20;;;12.63;;
15748;SDS011;7976;52.526;13.326;2022-12-18T10:55:27;51.97;;;17.30;;
15748;SDS011;7976;52.526;13.326;2022-12-18T10:58:15;47.97;;;16.20;;
15748;SDS011;7976;52.526;13.326;2022-12-18T11:01:01;44.57;;;16.50;;
15748;SDS011;7976;52.526;13.326;2022-12-18T11:03:33;46.80;;;16.37;;
15748;SDS011;7976;52.526;13.326;2022-12-18T11:06:04;45.10;;;17.40;;
15748;SDS011;7976;52.526;13.326;2022-12-18T11:08:34;39.33;;;11.97;;
15748;SDS011;7976;52.526;13.326;2022-12-18T11:11:02;50.53;;;16.77;;
15748;SDS011;7976;52.526;13.326;2022-12-18T11:13:43;38.63;;;12.10;;
15748;SDS011;7976;52.526;13.326;2022-12-18T11:16:25;40.33;;;15.63;;
15748;SDS011;7976;52.526;13.326;2022-12-18T11:18:59;44.57;;;15.87;;
15748;SDS011;7976;52.526;13.326;2022-12-18T11:21:46;37.07;;;11.50;;
15748;SDS011;7976;52.526;13.326;2022-12-18T11:24:21;43.67;;;11.93;;
15748;SDS011;7976;52.526;13.326;2022-12-18T11:26:57;39.43;;;10.37;;
15748;SDS011;7976;52.526;13.326;2022-12-18T11:29:34;37.30;;;12.43;;
15748;SDS011;7976;52.526;13.326;2022-12-18T11:32:24;44.20;;;16.13;;
15748;SDS011;7976;52.526;13.326;2022-12-18T11:35:03;44.23;;;15.67;;
15748;SDS011;7976;52.526;13.326;2022-12-18T11:37:43;45.23;;;15.67;;
15748;SDS011;7976;52.526;13.326;2022-12-18T11:40:19;45.10;;;15.93;;
15748;SDS011;7976;52.526;13.326;2022-12-18T11:42:58;40.10;;;14.33;;
15748;SDS011;7976;52.526;13.326;2022-12-18T11:45:34;44.30;;;14.77;;
15748;SDS011;7976;52.526;13.326;2022-12-18T11:48:09;39.43;;;14.57;;
15748;SDS011;7976;52.526;13.326;2022-12-18T11:50:46;29.53;;;10.50;;
15748;SDS011;7976;52.526;13.326;2022-12-18T11:53:17;41.97;;;14.70;;
15748;SDS011;7976;52.526;13.326;2022-12-18T11:55:50;34.27;;;10.87;;
15748;SDS011;7976;52.526;13.326;2022-12-18T11:58:35;36.50;;;10.83;;
15748;SDS011;7976;52.526;13.326;2022-12-18T12:01:25;33.80;;;9.97;;
15748;SDS011;7976;52.526;13.326;2022-12-18T12:04:22;34.50;;;10.63;;
15748;SDS011;7976;52.526;13.326;2022-12-18T12:07:15;35.87;;;9.93;;
15748;SDS011;7976;52.526;13.326;2022-12-18T12:10:01;39.27;;;13.97;;
15748;SDS011;7976;52.526;13.326;2022-12-18T12:12:48;34.57;;;10.63;;
15748;SDS011;7976;52.526;13.326;2022-12-18T12:15:38;33.93;;;10.73;;
15748;SDS011;7976;52.526;13.326;2022-12-18T12:18:21;30.57;;;9.93;;
15748;SDS011;7976;52.526;13.326;2022-12-18T12:21:04;41.30;;;14.13;;
15748;SDS011;7976;52.526;13.326;2022-12-18T12:23:44;39.37;;;14.33;;
15748;SDS011;7976;52.526;13.326;2022-12-18T12:26:22;41.43;;;14.90;;
15748;SDS011;7976;52.526;13.326;2022-12-18T12:29:00;36.83;;;13.97;;
15748;SDS011;7976;52.526;13.326;2022-12-18T12:31:48;36.03;;;11.40;;
15748;SDS011;7976;52.526;13.326;2022-12-18T12:34:36;30.83;;;10.50;;
15748;SDS011;7976;52.526;13.326;2022-12-18T12:37:25;40.03;;;14.13;;
15748;SDS011;7976;52.526;13.326;2022-12-18T12:40:11;42.53;;;14.63;;
15748;SDS011;7976;52.526;13.326;2022-12-18T12:42:44;37.53;;;14.50;;
15748;SDS011;7976;52.526;13.326;2022-12-18T12:45:36;39.07;;;13.77;;
15748;SDS011;7976;52.526;13.326;2022-12-18T12:48:14;37.87;;;13.37;;
15748;SDS011;7976;52.526;13.326;2022-12-18T12:50:50;32.27;;;10.87;;
15748;SDS011;7976;52.526;13.326;2022-12-18T12:53:22;42.00;;;14.67;;
15748;SDS011;7976;52.526;13.326;2022-12-18T12:55:58;37.20;;;14.30;;
15748;SDS011;7976;52.526;13.326;2022-12-18T12:58:29;38.33;;;15.13;;
15748;SDS011;7976;52.526;13.326;2022-12-18T13:01:08;33.07;;;10.27;;
15748;SDS011;7976;52.526;13.326;2022-12-18T13:03:52;35.43;;;10.27;;
15748;SDS011;7976;52.526;13.326;2022-12-18T13:06:35;42.13;;;14.10;;
15748;SDS011;7976;52.526;13.326;2022-12-18T13:09:12;39.27;;;14.70;;
15748;SDS011;7976;52.526;13.326;2022-12-18T13:11:39;36.30;;;14.37;;
15748;SDS011;7976;52.526;13.326;2022-12-18T13:14:28;28.00;;;8.87;;
15748;SDS011;7976;52.526;13.326;2022-12-18T13:17:14;29.70;;;9.97;;
15748;SDS011;7976;52.526;13.326;2022-12-18T13:20:03;31.47;;;10.37;;
15748;SDS011;7976;52.526;13.326;2022-12-18T13:22:35;34.47;;;14.10;;
15748;SDS011;7976;52.526;13.326;2022-12-18T13:28:06;40.33;;;14.60;;
15748;SDS011;7976;52.526;13.326;2022-12-18T13:30:43;29.20;;;10.30;;
15748;SDS011;7976;52.526;13.326;2022-12-18T13:36:16;39.33;;;15.30;;
15748;SDS011;7976;52.526;13.326;2022-12-18T13:39:20;40.93;;;15.80;;
15748;SDS011;7976;52.526;13.326;2022-12-18T13:45:43;39.23;;;15.57;;
15748;SDS011;7976;52.526;13.326;2022-12-18T13:48:19;38.33;;;15.40;;
15748;SDS011;7976;52.526;13.326;2022-12-18T13:50:52;34.77;;;11.30;;
15748;SDS011;7976;52.526;13.326;2022-12-18T13:53:25;34.03;;;11.60;;
15748;SDS011;7976;52.526;13.326;2022-12-18T13:55:58;34.53;;;11.17;;
15748;SDS011;7976;52.526;13.326;2022-12-18T13:58:26;31.07;;;11.23;;
15748;SDS011;7976;52.526;13.326;2022-12-18T14:00:53;33.03;;;12.43;;
15748;SDS011;7976;52.526;13.326;2022-12-18T14:03:21;34.80;;;10.23;;
15748;SDS011;7976;52.526;13.326;2022-12-18T14:05:54;28.50;;;10.33;;
15748;SDS011;7976;52.526;13.326;2022-12-18T14:08:34;31.93;;;14.23;;
15748;SDS011;7976;52.526;13.326;2022-12-18T14:11:06;39.43;;;15.73;;
15748;SDS011;7976;52.526;13.326;2022-12-18T14:13:46;34.97;;;12.07;;
15748;SDS011;7976;52.526;13.326;2022-12-18T14:16:13;32.40;;;11.30;;
15748;SDS011;7976;52.526;13.326;2022-12-18T14:18:43;30.53;;;10.90;;
15748;SDS011;7976;52.526;13.326;2022-12-18T14:21:18;40.13;;;12.63;;
15748;SDS011;7976;52.526;13.326;2022-12-18T14:23:49;41.53;;;13.40;;
15748;SDS011;7976;52.526;13.326;2022-12-18T14:26:40;35.97;;;12.87;;
15748;SDS011;7976;52.526;13.326;2022-12-18T14:29:22;47.33;;;17.80;;
15748;SDS011;7976;52.526;13.326;2022-12-18T14:32:09;45.83;;;18.27;;
15748;SDS011;7976;52.526;13.326;2022-12-18T14:34:42;39.40;;;13.63;;
15748;SDS011;7976;52.526;13.326;2022-12-18T14:37:09;40.93;;;13.13;;
15748;SDS011;7976;52.526;13.326;2022-12-18T14:39:37;36.77;;;12.43;;
15748;SDS011;7976;52.526;13.326;2022-12-18T14:42:05;44.73;;;18.03;;
15748;SDS011;7976;52.526;13.326;2022-12-18T14:44:36;45.97;;;18.50;;
15748;SDS011;7976;52.526;13.326;2022-12-18T14:47:03;44.23;;;17.03;;
15748;SDS011;7976;52.526;13.326;2022-12-18T14:49:30;42.40;;;17.30;;
15748;SDS011;7976;52.526;13.326;2022-12-18T14:52:02;43.40;;;17.00;;
15748;SDS011;7976;52.526;13.326;2022-12-18T14:54:32;42.27;;;17.13;;
15748;SDS011;7976;52.526;13.326;2022-12-18T14:57:05;43.30;;;16.47;;
15748;SDS011;7976;52.526;13.326;2022-12-18T14:59:47;37.33;;;12.20;;
15748;SDS011;7976;52.526;13.326;2022-12-18T15:02:15;37.83;;;16.63;;
15748;SDS011;7976;52.526;13.326;2022-12-18T15:04:59;35.80;;;11.83;;